sensor_id;sensor_type;location;lat;lon;timestamp;pressure;altitude;pressure_sealevel;temperature
67758;BMP180;54562;47.620;18.786;2022-08-11T00:02:35;99003.80;;;19.90
67758;BMP180;54562;47.620;18.786;2022-08-11T00:05:53;98995.60;;;19.90
67758;BMP180;54562;47.620;18.786;2022-08-11T00:09:04;98994.20;;;19.90
67758;BMP180;54562;47.620;18.786;2022-08-11T00:12:17;98994.80;;;19.90
67758;BMP180;54562;47.620;18.786;2022-08-11T00:15:27;98994.00;;;19.80
67758;BMP180;54562;47.620;18.786;2022-08-11T00:18:48;98989.40;;;19.80
67758;BMP180;54562;47.620;18.786;2022-08-11T00:21:57;98984.00;;;19.80
67758;BMP180;54562;47.620;18.786;2022-08-11T00:25:16;98986.00;;;19.70
67758;BMP180;54562;47.620;18.786;2022-08-11T00:28:30;98978.00;;;19.70
67758;BMP180;54562;47.620;18.786;2022-08-11T00:31:44;98977.40;;;19.70
67758;BMP180;54562;47.620;18.786;2022-08-11T00:34:54;98974.20;;;19.70
67758;BMP180;54562;47.620;18.786;2022-08-11T00:38:28;98981.60;;;19.70
67758;BMP180;54562;47.620;18.786;2022-08-11T00:41:41;98977.40;;;19.70
67758;BMP180;54562;47.620;18.786;2022-08-11T00:45:05;98979.00;;;19.70
67758;BMP180;54562;47.620;18.786;2022-08-11T00:48:31;98976.60;;;19.70
67758;BMP180;54562;47.620;18.786;2022-08-11T00:51:58;98975.00;;;19.70
67758;BMP180;54562;47.620;18.786;2022-08-11T00:55:45;98978.80;;;19.70
67758;BMP180;54562;47.620;18.786;2022-08-11T00:59:52;98980.40;;;19.70
67758;BMP180;54562;47.620;18.786;2022-08-11T01:03:20;98980.00;;;19.60
67758;BMP180;54562;47.620;18.786;2022-08-11T01:07:02;98985.00;;;19.60
67758;BMP180;54562;47.620;18.786;2022-08-11T01:10:51;98985.00;;;19.60
67758;BMP180;54562;47.620;18.786;2022-08-11T01:18:43;98981.60;;;19.60
67758;BMP180;54562;47.620;18.786;2022-08-11T01:26:43;98976.20;;;19.50
67758;BMP180;54562;47.620;18.786;2022-08-11T01:35:00;98970.20;;;19.40
67758;BMP180;54562;47.620;18.786;2022-08-11T01:43:23;98978.80;;;19.40
67758;BMP180;54562;47.620;18.786;2022-08-11T01:47:04;98974.80;;;19.40
67758;BMP180;54562;47.620;18.786;2022-08-11T01:50:22;98978.00;;;19.40
67758;BMP180;54562;47.620;18.786;2022-08-11T01:53:45;98975.60;;;19.30
67758;BMP180;54562;47.620;18.786;2022-08-11T01:57:12;98969.80;;;19.30
67758;BMP180;54562;47.620;18.786;2022-08-11T02:00:30;98968.40;;;19.30
67758;BMP180;54562;47.620;18.786;2022-08-11T02:03:52;98968.40;;;19.20
67758;BMP180;54562;47.620;18.786;2022-08-11T02:07:12;98974.00;;;19.20
67758;BMP180;54562;47.620;18.786;2022-08-11T02:10:29;98967.20;;;19.20
67758;BMP180;54562;47.620;18.786;2022-08-11T02:14:06;98958.80;;;19.20
67758;BMP180;54562;47.620;18.786;2022-08-11T02:17:31;98956.80;;;19.10
67758;BMP180;54562;47.620;18.786;2022-08-11T02:20:49;98965.80;;;19.10
67758;BMP180;54562;47.620;18.786;2022-08-11T02:24:25;98966.80;;;19.10
67758;BMP180;54562;47.620;18.786;2022-08-11T02:27:42;98968.40;;;19.06
67758;BMP180;54562;47.620;18.786;2022-08-11T02:31:11;98964.80;;;19.00
67758;BMP180;54562;47.620;18.786;2022-08-11T02:35:11;98974.80;;;18.90
67758;BMP180;54562;47.620;18.786;2022-08-11T02:38:32;98974.20;;;18.80
67758;BMP180;54562;47.620;18.786;2022-08-11T02:41:51;98974.20;;;18.70
67758;BMP180;54562;47.620;18.786;2022-08-11T02:46:15;98973.80;;;18.62
67758;BMP180;54562;47.620;18.786;2022-08-11T02:49:43;98969.20;;;18.60
67758;BMP180;54562;47.620;18.786;2022-08-11T02:53:26;98972.20;;;18.60
67758;BMP180;54562;47.620;18.786;2022-08-11T02:56:49;98971.40;;;18.50
67758;BMP180;54562;47.620;18.786;2022-08-11T03:00:05;98969.40;;;18.56
67758;BMP180;54562;47.620;18.786;2022-08-11T03:03:24;98967.60;;;18.50
67758;BMP180;54562;47.620;18.786;2022-08-11T03:06:48;98965.40;;;18.60
67758;BMP180;54562;47.620;18.786;2022-08-11T03:10:04;98965.40;;;18.60
67758;BMP180;54562;47.620;18.786;2022-08-11T03:13:23;98965.00;;;18.60
67758;BMP180;54562;47.620;18.786;2022-08-11T03:17:02;98964.20;;;18.60
67758;BMP180;54562;47.620;18.786;2022-08-11T03:20:35;98959.60;;;18.60
67758;BMP180;54562;47.620;18.786;2022-08-11T03:23:57;98963.60;;;18.60
67758;BMP180;54562;47.620;18.786;2022-08-11T03:27:13;98960.20;;;18.52
67758;BMP180;54562;47.620;18.786;2022-08-11T03:30:45;98968.40;;;18.50
67758;BMP180;54562;47.620;18.786;2022-08-11T03:34:00;98970.20;;;18.50
67758;BMP180;54562;47.620;18.786;2022-08-11T03:37:40;98975.80;;;18.50
67758;BMP180;54562;47.620;18.786;2022-08-11T03:41:17;98975.00;;;18.48
67758;BMP180;54562;47.620;18.786;2022-08-11T03:45:24;98980.60;;;18.40
67758;BMP180;54562;47.620;18.786;2022-08-11T03:48:46;98981.00;;;18.40
67758;BMP180;54562;47.620;18.786;2022-08-11T03:52:06;98977.40;;;18.40
67758;BMP180;54562;47.620;18.786;2022-08-11T03:55:45;98974.20;;;18.32
67758;BMP180;54562;47.620;18.786;2022-08-11T04:11:22;98977.20;;;18.30
67758;BMP180;54562;47.620;18.786;2022-08-11T04:14:54;98978.80;;;18.30
67758;BMP180;54562;47.620;18.786;2022-08-11T04:23:06;98986.00;;;18.20
67758;BMP180;54562;47.620;18.786;2022-08-11T04:27:16;98980.40;;;18.20
67758;BMP180;54562;47.620;18.786;2022-08-11T04:30:43;98977.80;;;18.10
67758;BMP180;54562;47.620;18.786;2022-08-11T04:34:11;98981.20;;;18.10
67758;BMP180;54562;47.620;18.786;2022-08-11T04:38:27;98984.60;;;18.12
67758;BMP180;54562;47.620;18.786;2022-08-11T04:42:11;98983.60;;;18.20
67758;BMP180;54562;47.620;18.786;2022-08-11T04:46:04;98984.00;;;18.30
67758;BMP180;54562;47.620;18.786;2022-08-11T04:49:46;98985.60;;;18.40
67758;BMP180;54562;47.620;18.786;2022-08-11T04:53:44;98990.00;;;18.60
67758;BMP180;54562;47.620;18.786;2022-08-11T04:57:31;98990.40;;;18.70
67758;BMP180;54562;47.620;18.786;2022-08-11T05:01:17;98984.60;;;18.90
67758;BMP180;54562;47.620;18.786;2022-08-11T05:05:13;98986.80;;;19.00
67758;BMP180;54562;47.620;18.786;2022-08-11T05:09:27;98984.00;;;19.10
67758;BMP180;54562;47.620;18.786;2022-08-11T05:12:47;98989.20;;;19.20
67758;BMP180;54562;47.620;18.786;2022-08-11T05:15:58;98991.60;;;19.30
67758;BMP180;54562;47.620;18.786;2022-08-11T05:19:26;98993.20;;;19.40
67758;BMP180;54562;47.620;18.786;2022-08-11T05:22:53;98997.60;;;19.60
67758;BMP180;54562;47.620;18.786;2022-08-11T05:26:21;99003.00;;;19.72
67758;BMP180;54562;47.620;18.786;2022-08-11T05:30:04;99006.60;;;19.80
67758;BMP180;54562;47.620;18.786;2022-08-11T05:33:44;99006.00;;;19.90
67758;BMP180;54562;47.620;18.786;2022-08-11T05:37:16;99010.80;;;20.10
67758;BMP180;54562;47.620;18.786;2022-08-11T05:40:33;99012.20;;;20.20
67758;BMP180;54562;47.620;18.786;2022-08-11T05:44:06;99012.00;;;20.30
67758;BMP180;54562;47.620;18.786;2022-08-11T05:47:34;99006.00;;;20.48
67758;BMP180;54562;47.620;18.786;2022-08-11T05:51:02;99011.40;;;20.50
67758;BMP180;54562;47.620;18.786;2022-08-11T05:54:36;99003.80;;;20.50
67758;BMP180;54562;47.620;18.786;2022-08-11T05:58:06;99011.60;;;20.60
67758;BMP180;54562;47.620;18.786;2022-08-11T06:01:23;99010.80;;;20.50
67758;BMP180;54562;47.620;18.786;2022-08-11T06:04:32;99009.40;;;20.60
67758;BMP180;54562;47.620;18.786;2022-08-11T06:07:41;99013.40;;;20.68
67758;BMP180;54562;47.620;18.786;2022-08-11T06:11:03;99007.40;;;20.78
67758;BMP180;54562;47.620;18.786;2022-08-11T06:14:13;99008.20;;;20.80
67758;BMP180;54562;47.620;18.786;2022-08-11T06:17:28;99007.40;;;20.80
67758;BMP180;54562;47.620;18.786;2022-08-11T06:20:51;99008.60;;;20.80
67758;BMP180;54562;47.620;18.786;2022-08-11T06:24:01;99016.40;;;20.90
67758;BMP180;54562;47.620;18.786;2022-08-11T06:27:11;99008.80;;;21.00
67758;BMP180;54562;47.620;18.786;2022-08-11T06:30:36;99008.20;;;21.08
67758;BMP180;54562;47.620;18.786;2022-08-11T06:33:58;99005.00;;;21.10
67758;BMP180;54562;47.620;18.786;2022-08-11T06:37:21;99004.80;;;21.12
67758;BMP180;54562;47.620;18.786;2022-08-11T06:40:39;99007.60;;;21.20
67758;BMP180;54562;47.620;18.786;2022-08-11T06:43:56;99008.60;;;21.30
67758;BMP180;54562;47.620;18.786;2022-08-11T06:47:16;99007.60;;;21.50
67758;BMP180;54562;47.620;18.786;2022-08-11T06:50:26;99009.00;;;21.70
67758;BMP180;54562;47.620;18.786;2022-08-11T06:53:56;99007.20;;;21.84
67758;BMP180;54562;47.620;18.786;2022-08-11T06:57:14;99003.00;;;22.00
67758;BMP180;54562;47.620;18.786;2022-08-11T07:00:44;98999.00;;;22.10
67758;BMP180;54562;47.620;18.786;2022-08-11T07:04:05;98998.80;;;22.30
67758;BMP180;54562;47.620;18.786;2022-08-11T07:08:03;99000.00;;;22.52
67758;BMP180;54562;47.620;18.786;2022-08-11T07:12:10;99000.60;;;22.60
67758;BMP180;54562;47.620;18.786;2022-08-11T07:15:42;98995.80;;;22.60
67758;BMP180;54562;47.620;18.786;2022-08-11T07:19:16;98993.60;;;22.80
67758;BMP180;54562;47.620;18.786;2022-08-11T07:22:50;98988.60;;;23.10
67758;BMP180;54562;47.620;18.786;2022-08-11T07:26:28;98984.80;;;23.20
67758;BMP180;54562;47.620;18.786;2022-08-11T07:29:56;98995.40;;;23.20
67758;BMP180;54562;47.620;18.786;2022-08-11T07:33:05;98994.40;;;23.10
67758;BMP180;54562;47.620;18.786;2022-08-11T07:36:15;98992.00;;;23.22
67758;BMP180;54562;47.620;18.786;2022-08-11T07:39:27;98997.60;;;23.42
67758;BMP180;54562;47.620;18.786;2022-08-11T07:42:37;98993.80;;;23.50
67758;BMP180;54562;47.620;18.786;2022-08-11T07:45:48;98991.60;;;23.58
67758;BMP180;54562;47.620;18.786;2022-08-11T07:49:13;98996.00;;;23.70
67758;BMP180;54562;47.620;18.786;2022-08-11T07:52:40;98991.40;;;23.80
67758;BMP180;54562;47.620;18.786;2022-08-11T07:55:50;98987.40;;;23.90
67758;BMP180;54562;47.620;18.786;2022-08-11T07:59:00;98981.60;;;23.90
67758;BMP180;54562;47.620;18.786;2022-08-11T08:02:30;98981.60;;;23.80
67758;BMP180;54562;47.620;18.786;2022-08-11T08:05:56;98979.00;;;23.80
67758;BMP180;54562;47.620;18.786;2022-08-11T08:09:43;98972.60;;;24.00
67758;BMP180;54562;47.620;18.786;2022-08-11T08:13:10;98974.20;;;24.20
67758;BMP180;54562;47.620;18.786;2022-08-11T08:16:37;98965.20;;;24.38
67758;BMP180;54562;47.620;18.786;2022-08-11T08:20:05;98966.80;;;24.40
67758;BMP180;54562;47.620;18.786;2022-08-11T08:23:17;98969.80;;;24.60
67758;BMP180;54562;47.620;18.786;2022-08-11T08:26:40;98965.20;;;24.60
67758;BMP180;54562;47.620;18.786;2022-08-11T08:30:11;98968.20;;;24.60
67758;BMP180;54562;47.620;18.786;2022-08-11T08:33:41;98966.80;;;24.80
67758;BMP180;54562;47.620;18.786;2022-08-11T08:36:52;98963.00;;;25.00
67758;BMP180;54562;47.620;18.786;2022-08-11T08:40:00;98960.20;;;25.20
67758;BMP180;54562;47.620;18.786;2022-08-11T08:43:14;98954.20;;;25.30
67758;BMP180;54562;47.620;18.786;2022-08-11T08:46:29;98952.00;;;25.50
67758;BMP180;54562;47.620;18.786;2022-08-11T08:49:45;98951.20;;;25.60
67758;BMP180;54562;47.620;18.786;2022-08-11T08:53:00;98951.00;;;25.80
67758;BMP180;54562;47.620;18.786;2022-08-11T08:56:12;98951.20;;;25.84
67758;BMP180;54562;47.620;18.786;2022-08-11T08:59:27;98948.00;;;25.90
67758;BMP180;54562;47.620;18.786;2022-08-11T09:02:55;98944.60;;;26.10
67758;BMP180;54562;47.620;18.786;2022-08-11T09:06:02;98941.80;;;26.20
67758;BMP180;54562;47.620;18.786;2022-08-11T09:09:11;98942.80;;;26.30
67758;BMP180;54562;47.620;18.786;2022-08-11T09:12:21;98941.60;;;26.42
67758;BMP180;54562;47.620;18.786;2022-08-11T09:15:45;98935.00;;;26.50
67758;BMP180;54562;47.620;18.786;2022-08-11T09:18:57;98941.20;;;26.70
67758;BMP180;54562;47.620;18.786;2022-08-11T09:22:07;98928.00;;;26.86
67758;BMP180;54562;47.620;18.786;2022-08-11T09:25:34;98934.60;;;27.10
67758;BMP180;54562;47.620;18.786;2022-08-11T09:29:02;98927.20;;;27.30
67758;BMP180;54562;47.620;18.786;2022-08-11T09:32:12;98931.60;;;27.50
67758;BMP180;54562;47.620;18.786;2022-08-11T09:35:21;98929.40;;;27.50
67758;BMP180;54562;47.620;18.786;2022-08-11T09:38:29;98929.00;;;27.60
67758;BMP180;54562;47.620;18.786;2022-08-11T09:41:56;98928.80;;;27.70
67758;BMP180;54562;47.620;18.786;2022-08-11T09:45:11;98929.80;;;27.80
67758;BMP180;54562;47.620;18.786;2022-08-11T09:48:22;98924.20;;;27.98
67758;BMP180;54562;47.620;18.786;2022-08-11T09:51:33;98917.20;;;28.00
67758;BMP180;54562;47.620;18.786;2022-08-11T09:54:49;98917.20;;;27.90
67758;BMP180;54562;47.620;18.786;2022-08-11T09:57:59;98911.00;;;27.78
67758;BMP180;54562;47.620;18.786;2022-08-11T10:01:48;98912.40;;;27.50
67758;BMP180;54562;47.620;18.786;2022-08-11T10:04:58;98920.80;;;27.22
67758;BMP180;54562;47.620;18.786;2022-08-11T10:08:25;98914.60;;;27.00
67758;BMP180;54562;47.620;18.786;2022-08-11T10:11:35;98901.60;;;27.00
67758;BMP180;54562;47.620;18.786;2022-08-11T10:14:47;98903.00;;;27.10
67758;BMP180;54562;47.620;18.786;2022-08-11T10:18:18;98908.40;;;27.10
67758;BMP180;54562;47.620;18.786;2022-08-11T10:21:52;98907.20;;;27.10
67758;BMP180;54562;47.620;18.786;2022-08-11T10:25:16;98898.20;;;26.90
67758;BMP180;54562;47.620;18.786;2022-08-11T10:28:43;98900.20;;;26.80
67758;BMP180;54562;47.620;18.786;2022-08-11T10:32:10;98887.00;;;26.70
67758;BMP180;54562;47.620;18.786;2022-08-11T10:36:04;98880.60;;;27.18
67758;BMP180;54562;47.620;18.786;2022-08-11T10:39:23;98886.20;;;27.74
67758;BMP180;54562;47.620;18.786;2022-08-11T10:42:34;98882.60;;;27.52
67758;BMP180;54562;47.620;18.786;2022-08-11T10:46:04;98886.00;;;27.30
67758;BMP180;54562;47.620;18.786;2022-08-11T10:49:36;98883.00;;;27.10
67758;BMP180;54562;47.620;18.786;2022-08-11T10:52:47;98887.60;;;27.00
67758;BMP180;54562;47.620;18.786;2022-08-11T10:56:12;98889.80;;;26.80
67758;BMP180;54562;47.620;18.786;2022-08-11T10:59:40;98892.00;;;26.60
67758;BMP180;54562;47.620;18.786;2022-08-11T11:02:50;98892.80;;;26.40
67758;BMP180;54562;47.620;18.786;2022-08-11T11:06:28;98891.20;;;26.24
67758;BMP180;54562;47.620;18.786;2022-08-11T11:09:46;98886.80;;;26.20
67758;BMP180;54562;47.620;18.786;2022-08-11T11:12:58;98885.00;;;26.20
67758;BMP180;54562;47.620;18.786;2022-08-11T11:16:26;98882.80;;;26.10
67758;BMP180;54562;47.620;18.786;2022-08-11T11:19:56;98878.60;;;26.02
67758;BMP180;54562;47.620;18.786;2022-08-11T11:23:09;98875.40;;;26.00
67758;BMP180;54562;47.620;18.786;2022-08-11T11:26:39;98873.60;;;26.00
67758;BMP180;54562;47.620;18.786;2022-08-11T11:30:03;98861.40;;;26.00
67758;BMP180;54562;47.620;18.786;2022-08-11T11:33:20;98855.80;;;26.00
67758;BMP180;54562;47.620;18.786;2022-08-11T11:36:43;98853.20;;;26.00
67758;BMP180;54562;47.620;18.786;2022-08-11T11:39:53;98855.40;;;26.10
67758;BMP180;54562;47.620;18.786;2022-08-11T11:43:04;98855.80;;;26.10
67758;BMP180;54562;47.620;18.786;2022-08-11T11:46:12;98852.00;;;26.10
67758;BMP180;54562;47.620;18.786;2022-08-11T11:49:24;98840.40;;;26.22
67758;BMP180;54562;47.620;18.786;2022-08-11T11:52:34;98842.40;;;26.38
67758;BMP180;54562;47.620;18.786;2022-08-11T11:55:46;98838.60;;;26.46
67758;BMP180;54562;47.620;18.786;2022-08-11T11:58:55;98836.40;;;26.70
67758;BMP180;54562;47.620;18.786;2022-08-11T12:02:21;98838.80;;;26.90
67758;BMP180;54562;47.620;18.786;2022-08-11T12:05:32;98834.60;;;26.98
67758;BMP180;54562;47.620;18.786;2022-08-11T12:08:42;98833.00;;;27.00
67758;BMP180;54562;47.620;18.786;2022-08-11T12:11:48;98830.20;;;27.10
67758;BMP180;54562;47.620;18.786;2022-08-11T12:15:24;98829.20;;;27.10
67758;BMP180;54562;47.620;18.786;2022-08-11T12:18:57;98817.80;;;27.10
67758;BMP180;54562;47.620;18.786;2022-08-11T12:22:06;98816.40;;;27.28
67758;BMP180;54562;47.620;18.786;2022-08-11T12:25:33;98816.60;;;27.38
67758;BMP180;54562;47.620;18.786;2022-08-11T12:29:21;98812.20;;;27.48
67758;BMP180;54562;47.620;18.786;2022-08-11T12:32:35;98809.80;;;27.50
67758;BMP180;54562;47.620;18.786;2022-08-11T12:35:46;98803.60;;;27.50
67758;BMP180;54562;47.620;18.786;2022-08-11T12:39:08;98799.40;;;27.60
67758;BMP180;54562;47.620;18.786;2022-08-11T12:42:38;98795.40;;;28.10
67758;BMP180;54562;47.620;18.786;2022-08-11T12:46:08;98794.00;;;28.72
67758;BMP180;54562;47.620;18.786;2022-08-11T12:49:20;98783.80;;;29.10
67758;BMP180;54562;47.620;18.786;2022-08-11T12:52:54;98782.80;;;28.98
67758;BMP180;54562;47.620;18.786;2022-08-11T12:56:07;98786.00;;;28.80
67758;BMP180;54562;47.620;18.786;2022-08-11T12:59:35;98775.60;;;28.90
67758;BMP180;54562;47.620;18.786;2022-08-11T13:03:06;98768.80;;;28.90
67758;BMP180;54562;47.620;18.786;2022-08-11T13:06:32;98771.00;;;28.98
67758;BMP180;54562;47.620;18.786;2022-08-11T13:09:44;98775.20;;;29.40
67758;BMP180;54562;47.620;18.786;2022-08-11T13:12:53;98760.00;;;29.66
67758;BMP180;54562;47.620;18.786;2022-08-11T13:16:02;98750.00;;;30.00
67758;BMP180;54562;47.620;18.786;2022-08-11T13:19:10;98759.20;;;29.90
67758;BMP180;54562;47.620;18.786;2022-08-11T13:22:20;98758.20;;;29.70
67758;BMP180;54562;47.620;18.786;2022-08-11T13:25:32;98755.40;;;29.60
67758;BMP180;54562;47.620;18.786;2022-08-11T13:28:41;98754.80;;;29.34
67758;BMP180;54562;47.620;18.786;2022-08-11T13:31:50;98748.20;;;29.30
67758;BMP180;54562;47.620;18.786;2022-08-11T13:34:59;98745.80;;;29.30
67758;BMP180;54562;47.620;18.786;2022-08-11T13:38:08;98744.40;;;29.30
67758;BMP180;54562;47.620;18.786;2022-08-11T13:41:27;98732.60;;;29.54
67758;BMP180;54562;47.620;18.786;2022-08-11T13:44:46;98734.60;;;29.70
67758;BMP180;54562;47.620;18.786;2022-08-11T13:47:58;98740.60;;;29.70
67758;BMP180;54562;47.620;18.786;2022-08-11T13:51:07;98737.20;;;29.70
67758;BMP180;54562;47.620;18.786;2022-08-11T13:54:42;98729.00;;;29.60
67758;BMP180;54562;47.620;18.786;2022-08-11T13:57:54;98731.00;;;29.70
67758;BMP180;54562;47.620;18.786;2022-08-11T14:01:26;98730.60;;;29.60
67758;BMP180;54562;47.620;18.786;2022-08-11T14:05:00;98727.00;;;29.50
67758;BMP180;54562;47.620;18.786;2022-08-11T14:08:18;98726.00;;;29.50
67758;BMP180;54562;47.620;18.786;2022-08-11T14:11:45;98719.80;;;29.50
67758;BMP180;54562;47.620;18.786;2022-08-11T14:15:33;98716.20;;;29.06
67758;BMP180;54562;47.620;18.786;2022-08-11T14:18:46;98714.20;;;28.80
67758;BMP180;54562;47.620;18.786;2022-08-11T14:21:58;98687.20;;;28.70
67758;BMP180;54562;47.620;18.786;2022-08-11T14:25:15;98724.40;;;28.60
67758;BMP180;54562;47.620;18.786;2022-08-11T14:28:23;98715.60;;;28.28
67758;BMP180;54562;47.620;18.786;2022-08-11T14:31:45;98720.80;;;27.92
67758;BMP180;54562;47.620;18.786;2022-08-11T14:34:54;98721.40;;;27.78
67758;BMP180;54562;47.620;18.786;2022-08-11T14:38:04;98722.80;;;27.60
67758;BMP180;54562;47.620;18.786;2022-08-11T14:41:13;98719.20;;;27.50
67758;BMP180;54562;47.620;18.786;2022-08-11T14:44:41;98715.20;;;27.40
67758;BMP180;54562;47.620;18.786;2022-08-11T14:48:11;98717.40;;;27.30
67758;BMP180;54562;47.620;18.786;2022-08-11T14:51:22;98720.20;;;27.20
67758;BMP180;54562;47.620;18.786;2022-08-11T14:54:32;98719.20;;;27.10
67758;BMP180;54562;47.620;18.786;2022-08-11T14:57:58;98716.00;;;27.10
67758;BMP180;54562;47.620;18.786;2022-08-11T15:01:07;98718.40;;;27.00
67758;BMP180;54562;47.620;18.786;2022-08-11T15:04:30;98716.20;;;26.90
67758;BMP180;54562;47.620;18.786;2022-08-11T15:07:46;98715.20;;;26.84
67758;BMP180;54562;47.620;18.786;2022-08-11T15:10:54;98716.40;;;26.80
67758;BMP180;54562;47.620;18.786;2022-08-11T15:14:05;98719.00;;;26.72
67758;BMP180;54562;47.620;18.786;2022-08-11T15:17:14;98716.60;;;26.70
67758;BMP180;54562;47.620;18.786;2022-08-11T15:20:21;98716.00;;;26.60
67758;BMP180;54562;47.620;18.786;2022-08-11T15:23:48;98716.40;;;26.60
67758;BMP180;54562;47.620;18.786;2022-08-11T15:27:19;98715.40;;;26.50
67758;BMP180;54562;47.620;18.786;2022-08-11T15:30:49;98712.40;;;26.50
67758;BMP180;54562;47.620;18.786;2022-08-11T15:34:21;98716.00;;;26.40
67758;BMP180;54562;47.620;18.786;2022-08-11T15:37:57;98718.40;;;26.30
67758;BMP180;54562;47.620;18.786;2022-08-11T15:41:09;98717.80;;;26.30
67758;BMP180;54562;47.620;18.786;2022-08-11T15:48:47;98712.20;;;26.10
67758;BMP180;54562;47.620;18.786;2022-08-11T15:52:06;98709.20;;;26.00
67758;BMP180;54562;47.620;18.786;2022-08-11T15:55:13;98708.60;;;25.90
67758;BMP180;54562;47.620;18.786;2022-08-11T16:07:34;98702.60;;;25.62
67758;BMP180;54562;47.620;18.786;2022-08-11T16:10:46;98700.80;;;25.60
67758;BMP180;54562;47.620;18.786;2022-08-11T16:13:59;98691.60;;;25.50
67758;BMP180;54562;47.620;18.786;2022-08-11T16:17:29;98696.40;;;25.50
67758;BMP180;54562;47.620;18.786;2022-08-11T16:20:38;98694.20;;;25.40
67758;BMP180;54562;47.620;18.786;2022-08-11T16:23:49;98693.80;;;25.30
67758;BMP180;54562;47.620;18.786;2022-08-11T16:27:01;98696.60;;;25.30
67758;BMP180;54562;47.620;18.786;2022-08-11T16:30:20;98695.40;;;25.20
67758;BMP180;54562;47.620;18.786;2022-08-11T16:33:30;98692.80;;;25.10
67758;BMP180;54562;47.620;18.786;2022-08-11T16:36:59;98692.20;;;25.00
67758;BMP180;54562;47.620;18.786;2022-08-11T16:40:26;98692.80;;;24.90
67758;BMP180;54562;47.620;18.786;2022-08-11T16:43:40;98689.40;;;24.90
67758;BMP180;54562;47.620;18.786;2022-08-11T16:47:11;98693.80;;;24.80
67758;BMP180;54562;47.620;18.786;2022-08-11T16:50:22;98689.80;;;24.70
67758;BMP180;54562;47.620;18.786;2022-08-11T16:53:32;98687.60;;;24.62
67758;BMP180;54562;47.620;18.786;2022-08-11T16:57:04;98692.60;;;24.60
67758;BMP180;54562;47.620;18.786;2022-08-11T17:00:28;98693.60;;;24.50
67758;BMP180;54562;47.620;18.786;2022-08-11T17:03:42;98688.60;;;24.50
67758;BMP180;54562;47.620;18.786;2022-08-11T17:07:08;98688.20;;;24.40
67758;BMP180;54562;47.620;18.786;2022-08-11T17:10:56;98690.00;;;24.30
67758;BMP180;54562;47.620;18.786;2022-08-11T17:14:27;98691.00;;;24.20
67758;BMP180;54562;47.620;18.786;2022-08-11T17:17:42;98695.00;;;24.10
67758;BMP180;54562;47.620;18.786;2022-08-11T17:20:53;98704.80;;;24.00
67758;BMP180;54562;47.620;18.786;2022-08-11T17:24:06;98706.60;;;23.80
67758;BMP180;54562;47.620;18.786;2022-08-11T17:27:18;98708.60;;;23.60
67758;BMP180;54562;47.620;18.786;2022-08-11T17:30:28;98717.60;;;23.40
67758;BMP180;54562;47.620;18.786;2022-08-11T17:33:51;98725.60;;;23.16
67758;BMP180;54562;47.620;18.786;2022-08-11T17:37:20;98726.20;;;22.90
67758;BMP180;54562;47.620;18.786;2022-08-11T17:40:30;98728.20;;;22.70
67758;BMP180;54562;47.620;18.786;2022-08-11T17:43:40;98721.60;;;22.50
67758;BMP180;54562;47.620;18.786;2022-08-11T17:47:07;98720.60;;;22.28
67758;BMP180;54562;47.620;18.786;2022-08-11T17:50:36;98722.20;;;22.10
67758;BMP180;54562;47.620;18.786;2022-08-11T17:53:45;98720.60;;;21.90
67758;BMP180;54562;47.620;18.786;2022-08-11T17:57:31;98712.40;;;21.72
67758;BMP180;54562;47.620;18.786;2022-08-11T18:00:58;98716.40;;;21.60
67758;BMP180;54562;47.620;18.786;2022-08-11T18:04:16;98718.60;;;21.50
67758;BMP180;54562;47.620;18.786;2022-08-11T18:07:25;98719.40;;;21.40
67758;BMP180;54562;47.620;18.786;2022-08-11T18:10:52;98722.80;;;21.36
67758;BMP180;54562;47.620;18.786;2022-08-11T18:14:31;98717.00;;;21.20
67758;BMP180;54562;47.620;18.786;2022-08-11T18:17:57;98721.80;;;21.20
67758;BMP180;54562;47.620;18.786;2022-08-11T18:21:26;98713.40;;;21.10
67758;BMP180;54562;47.620;18.786;2022-08-11T18:25:14;98714.40;;;21.02
67758;BMP180;54562;47.620;18.786;2022-08-11T18:28:45;98713.40;;;21.00
67758;BMP180;54562;47.620;18.786;2022-08-11T18:32:14;98713.40;;;20.96
67758;BMP180;54562;47.620;18.786;2022-08-11T18:36:00;98709.20;;;20.90
67758;BMP180;54562;47.620;18.786;2022-08-11T18:39:33;98714.60;;;20.90
67758;BMP180;54562;47.620;18.786;2022-08-11T18:43:06;98711.80;;;20.90
67758;BMP180;54562;47.620;18.786;2022-08-11T18:46:38;98707.60;;;20.90
67758;BMP180;54562;47.620;18.786;2022-08-11T18:50:15;98711.80;;;20.90
67758;BMP180;54562;47.620;18.786;2022-08-11T18:53:49;98717.00;;;20.80
67758;BMP180;54562;47.620;18.786;2022-08-11T18:57:17;98711.00;;;20.80
67758;BMP180;54562;47.620;18.786;2022-08-11T19:01:02;98719.40;;;20.80
67758;BMP180;54562;47.620;18.786;2022-08-11T19:04:28;98721.40;;;20.70
67758;BMP180;54562;47.620;18.786;2022-08-11T19:07:56;98724.20;;;20.70
67758;BMP180;54562;47.620;18.786;2022-08-11T19:11:24;98724.20;;;20.70
67758;BMP180;54562;47.620;18.786;2022-08-11T19:14:53;98722.40;;;20.62
67758;BMP180;54562;47.620;18.786;2022-08-11T19:18:23;98719.00;;;20.60
67758;BMP180;54562;47.620;18.786;2022-08-11T19:21:51;98721.00;;;20.50
67758;BMP180;54562;47.620;18.786;2022-08-11T19:25:20;98719.80;;;20.50
67758;BMP180;54562;47.620;18.786;2022-08-11T19:28:49;98723.40;;;20.40
67758;BMP180;54562;47.620;18.786;2022-08-11T19:32:35;98721.60;;;20.40
67758;BMP180;54562;47.620;18.786;2022-08-11T19:36:02;98714.40;;;20.40
67758;BMP180;54562;47.620;18.786;2022-08-11T19:39:29;98715.40;;;20.40
67758;BMP180;54562;47.620;18.786;2022-08-11T19:42:58;98708.40;;;20.34
67758;BMP180;54562;47.620;18.786;2022-08-11T19:46:33;98706.20;;;20.30
67758;BMP180;54562;47.620;18.786;2022-08-11T19:50:01;98708.20;;;20.30
67758;BMP180;54562;47.620;18.786;2022-08-11T19:53:32;98715.80;;;20.30
67758;BMP180;54562;47.620;18.786;2022-08-11T19:57:00;98719.20;;;20.20
67758;BMP180;54562;47.620;18.786;2022-08-11T20:00:28;98719.00;;;20.20
67758;BMP180;54562;47.620;18.786;2022-08-11T20:03:54;98716.60;;;20.20
67758;BMP180;54562;47.620;18.786;2022-08-11T20:07:21;98716.40;;;20.20